PWSweather.com
Personal Weather Stations
Station Observations
KKYCRABO2
Cedar Creek Lake 840 Ky. Hwy. 39 N, Crab Orchard, KY 40419

Cedar Creek Lake 840 Ky. Hwy. 39 NCrab Orchard, KY 40419

Lat: 37.4736234544238, Lon: -84.5120286941528

Elevation: 952

Station Type: TYCON Power TP1080WC Pro

http://kbweather.net/

High Low Average
Temperature 57.6°F14.2°F 30.0°F-1.1°F 42.5°F5.8°F
Dew Point 57.2°F14.0°F 24.8°F-4.0°F 40.6°F4.8°F
Winds 3.8 mph W6.1 mph W 3.8 mph 6.1 mph 3.8 mph 6.1 mph
Wind Gusts 2.9 mph4.7 mph 2.9 mph4.7 mph 2.9 mph4.7 mph
Humidity 97% 85% 92%
Pressure 30.12 in1020.00 in 29.79 in1008.80 in -
Precipitation 26.07 in662.20 in - -
Hour Temp Dew Point Humidity Winds Wind Gusts Pressure Precip Precip Rate Daily Precip Total
12:00 AM 57.2°F14.0°C 57.2°F14.0°C 96% 3.8 mph W6.1 kmh W 2.9 mph4.7 kmh 29.82 in1009.8 mb 0.09 in2.3 mm 0.00 in/hr0.0 mm/hr 0.09 in2.3 mm
12:05 AM 57.4°F14.1°C 57.2°F14.0°C 97% 3.8 mph W6.1 kmh W 2.9 mph4.7 kmh 29.82 in1009.8 mb 0.09 in2.3 mm 0.00 in/hr0.0 mm/hr 0.09 in2.3 mm
12:10 AM 57.2°F14.0°C 57.2°F14.0°C 97% 3.8 mph W6.1 kmh W 2.9 mph4.7 kmh 29.79 in1008.8 mb 0.09 in2.3 mm 0.00 in/hr0.0 mm/hr 0.09 in2.3 mm
12:15 AM 57.4°F14.1°C 57.2°F14.0°C 97% 3.8 mph W6.1 kmh W 2.9 mph4.7 kmh 29.79 in1008.8 mb 0.09 in2.3 mm 0.00 in/hr0.0 mm/hr 0.09 in2.3 mm
12:20 AM 57.6°F14.2°C 57.2°F14.0°C 97% 3.8 mph W6.1 kmh W 2.9 mph4.7 kmh 29.79 in1008.8 mb 0.09 in2.3 mm 0.00 in/hr0.0 mm/hr 0.09 in2.3 mm
12:25 AM 57.6°F14.2°C 57.2°F14.0°C 97% 3.8 mph W6.1 kmh W 2.9 mph4.7 kmh 29.79 in1008.8 mb 0.13 in3.3 mm 0.48 in/hr12.2 mm/hr 0.04 in1.0 mm
12:30 AM 57.6°F14.2°C 57.2°F14.0°C 97% 3.8 mph W6.1 kmh W 2.9 mph4.7 kmh 29.79 in1008.8 mb 0.13 in3.3 mm 0.00 in/hr0.0 mm/hr 0.04 in1.0 mm
12:35 AM 57.6°F14.2°C 57.2°F14.0°C 97% 3.8 mph W6.1 kmh W 2.9 mph4.7 kmh 29.79 in1008.8 mb 0.13 in3.3 mm 0.00 in/hr0.0 mm/hr 0.04 in1.0 mm
12:40 AM 55.9°F13.3°C 55.4°F13.0°C 94% 3.8 mph W6.1 kmh W 2.9 mph4.7 kmh 29.79 in1008.8 mb 0.17 in4.3 mm 0.48 in/hr12.2 mm/hr 0.08 in2.0 mm
12:45 AM 54.7°F12.6°C 51.8°F11.0°C 89% 3.8 mph W6.1 kmh W 2.9 mph4.7 kmh 29.79 in1008.8 mb 0.17 in4.3 mm 0.00 in/hr0.0 mm/hr 0.08 in2.0 mm
12:50 AM 54.0°F12.2°C 51.8°F11.0°C 90% 3.8 mph W6.1 kmh W 2.9 mph4.7 kmh 29.79 in1008.8 mb 0.13 in3.3 mm 0.00 in/hr0.0 mm/hr 0.08 in2.0 mm
12:55 AM 53.4°F11.9°C 51.8°F11.0°C 91% 3.8 mph W6.1 kmh W 2.9 mph4.7 kmh 29.82 in1009.8 mb 0.08 in2.0 mm 0.00 in/hr0.0 mm/hr 0.08 in2.0 mm
01:00 AM 52.9°F11.6°C 50.0°F10.0°C 92% 3.8 mph W6.1 kmh W 2.9 mph4.7 kmh 29.82 in1009.8 mb 0.12 in3.0 mm 0.04 in/hr1.0 mm/hr 0.12 in3.0 mm
01:05 AM 52.5°F11.4°C 50.0°F10.0°C 92% 3.8 mph W6.1 kmh W 2.9 mph4.7 kmh 29.82 in1009.8 mb 0.12 in3.0 mm 0.00 in/hr0.0 mm/hr 0.12 in3.0 mm
01:10 AM 52.2°F11.2°C 50.0°F10.0°C 92% 3.8 mph W6.1 kmh W 2.9 mph4.7 kmh 29.85 in1010.8 mb 0.16 in4.1 mm 0.48 in/hr12.2 mm/hr 0.16 in4.1 mm
01:15 AM 52.0°F11.1°C 50.0°F10.0°C 93% 3.8 mph W6.1 kmh W 2.9 mph4.7 kmh 29.85 in1010.8 mb 0.16 in4.1 mm 0.00 in/hr0.0 mm/hr 0.16 in4.1 mm
01:20 AM 51.8°F11.0°C 50.0°F10.0°C 93% 3.8 mph W6.1 kmh W 2.9 mph4.7 kmh 29.85 in1010.8 mb 0.16 in4.1 mm 0.00 in/hr0.0 mm/hr 0.16 in4.1 mm
01:25 AM 51.4°F10.8°C 50.0°F10.0°C 93% 3.8 mph W6.1 kmh W 2.9 mph4.7 kmh 29.85 in1010.8 mb 0.12 in3.0 mm 0.00 in/hr0.0 mm/hr 0.16 in4.1 mm
01:30 AM 51.3°F10.7°C 50.0°F10.0°C 93% 3.8 mph W6.1 kmh W 2.9 mph4.7 kmh 29.85 in1010.8 mb 0.12 in3.0 mm 0.00 in/hr0.0 mm/hr 0.16 in4.1 mm
01:35 AM 51.1°F10.6°C 50.0°F10.0°C 93% 3.8 mph W6.1 kmh W 2.9 mph4.7 kmh 29.85 in1010.8 mb 0.12 in3.0 mm 0.00 in/hr0.0 mm/hr 0.16 in4.1 mm
01:40 AM 50.9°F10.5°C 50.0°F10.0°C 94% 3.8 mph W6.1 kmh W 2.9 mph4.7 kmh 29.85 in1010.8 mb 0.08 in2.0 mm 0.00 in/hr0.0 mm/hr 0.16 in4.1 mm
01:45 AM 50.7°F10.4°C 48.2°F9.0°C 94% 3.8 mph W6.1 kmh W 2.9 mph4.7 kmh 29.85 in1010.8 mb 0.08 in2.0 mm 0.00 in/hr0.0 mm/hr 0.16 in4.1 mm
01:50 AM 50.7°F10.4°C 48.2°F9.0°C 94% 3.8 mph W6.1 kmh W 2.9 mph4.7 kmh 29.85 in1010.8 mb 0.08 in2.0 mm 0.00 in/hr0.0 mm/hr 0.16 in4.1 mm
01:55 AM 50.7°F10.4°C 48.2°F9.0°C 94% 3.8 mph W6.1 kmh W 2.9 mph4.7 kmh 29.85 in1010.8 mb 0.08 in2.0 mm 0.00 in/hr0.0 mm/hr 0.16 in4.1 mm
02:00 AM 50.5°F10.3°C 48.2°F9.0°C 94% 3.8 mph W6.1 kmh W 2.9 mph4.7 kmh 29.85 in1010.8 mb 0.04 in1.0 mm 0.00 in/hr0.0 mm/hr 0.16 in4.1 mm
02:05 AM 50.4°F10.2°C 48.2°F9.0°C 94% 3.8 mph W6.1 kmh W 2.9 mph4.7 kmh 29.85 in1010.8 mb 0.08 in2.0 mm 0.48 in/hr12.2 mm/hr 0.20 in5.1 mm
02:10 AM 50.4°F10.2°C 48.2°F9.0°C 94% 3.8 mph W6.1 kmh W 2.9 mph4.7 kmh 29.85 in1010.8 mb 0.04 in1.0 mm 0.00 in/hr0.0 mm/hr 0.20 in5.1 mm
02:15 AM 50.2°F10.1°C 48.2°F9.0°C 94% 3.8 mph W6.1 kmh W 2.9 mph4.7 kmh 29.85 in1010.8 mb 0.04 in1.0 mm 0.00 in/hr0.0 mm/hr 0.20 in5.1 mm
02:20 AM 50.2°F10.1°C 48.2°F9.0°C 94% 3.8 mph W6.1 kmh W 2.9 mph4.7 kmh 29.85 in1010.8 mb 0.04 in1.0 mm 0.00 in/hr0.0 mm/hr 0.20 in5.1 mm
02:25 AM 50.2°F10.1°C 48.2°F9.0°C 94% 3.8 mph W6.1 kmh W 2.9 mph4.7 kmh 29.85 in1010.8 mb 0.08 in2.0 mm 0.48 in/hr12.2 mm/hr 0.24 in6.1 mm
02:30 AM 50.0°F10.0°C 48.2°F9.0°C 94% 3.8 mph W6.1 kmh W 2.9 mph4.7 kmh 29.85 in1010.8 mb 0.08 in2.0 mm 0.00 in/hr0.0 mm/hr 0.24 in6.1 mm
02:35 AM 50.0°F10.0°C 48.2°F9.0°C 94% 3.8 mph W6.1 kmh W 2.9 mph4.7 kmh 29.85 in1010.8 mb 0.08 in2.0 mm 0.00 in/hr0.0 mm/hr 0.24 in6.1 mm
02:40 AM 49.8°F9.9°C 48.2°F9.0°C 94% 3.8 mph W6.1 kmh W 2.9 mph4.7 kmh 29.85 in1010.8 mb 0.08 in2.0 mm 0.00 in/hr0.0 mm/hr 0.24 in6.1 mm
02:45 AM 49.8°F9.9°C 48.2°F9.0°C 94% 3.8 mph W6.1 kmh W 2.9 mph4.7 kmh 29.85 in1010.8 mb 0.13 in3.3 mm 0.60 in/hr15.2 mm/hr 0.29 in7.4 mm
02:50 AM 49.6°F9.8°C 48.2°F9.0°C 94% 3.8 mph W6.1 kmh W 2.9 mph4.7 kmh 29.85 in1010.8 mb 0.13 in3.3 mm 0.00 in/hr0.0 mm/hr 0.29 in7.4 mm
02:55 AM 49.6°F9.8°C 48.2°F9.0°C 94% 3.8 mph W6.1 kmh W 2.9 mph4.7 kmh 29.85 in1010.8 mb 0.13 in3.3 mm 0.00 in/hr0.0 mm/hr 0.29 in7.4 mm
03:00 AM 49.5°F9.7°C 48.2°F9.0°C 94% 3.8 mph W6.1 kmh W 2.9 mph4.7 kmh 29.85 in1010.8 mb 0.13 in3.3 mm 0.00 in/hr0.0 mm/hr 0.29 in7.4 mm
03:05 AM 49.5°F9.7°C 48.2°F9.0°C 94% 3.8 mph W6.1 kmh W 2.9 mph4.7 kmh 29.85 in1010.8 mb 0.09 in2.3 mm 0.00 in/hr0.0 mm/hr 0.29 in7.4 mm
03:10 AM 49.3°F9.6°C 48.2°F9.0°C 94% 3.8 mph W6.1 kmh W 2.9 mph4.7 kmh 29.82 in1009.8 mb 0.09 in2.3 mm 0.00 in/hr0.0 mm/hr 0.29 in7.4 mm
03:15 AM 49.3°F9.6°C 48.2°F9.0°C 94% 3.8 mph W6.1 kmh W 2.9 mph4.7 kmh 29.82 in1009.8 mb 0.09 in2.3 mm 0.00 in/hr0.0 mm/hr 0.29 in7.4 mm
03:20 AM 49.1°F9.5°C 48.2°F9.0°C 94% 3.8 mph W6.1 kmh W 2.9 mph4.7 kmh 29.82 in1009.8 mb 0.09 in2.3 mm 0.00 in/hr0.0 mm/hr 0.29 in7.4 mm
03:25 AM 49.1°F9.5°C 48.2°F9.0°C 94% 3.8 mph W6.1 kmh W 2.9 mph4.7 kmh 29.79 in1008.8 mb 0.05 in1.3 mm 0.00 in/hr0.0 mm/hr 0.29 in7.4 mm
03:30 AM 48.9°F9.4°C 48.2°F9.0°C 94% 3.8 mph W6.1 kmh W 2.9 mph4.7 kmh 29.79 in1008.8 mb 0.05 in1.3 mm 0.00 in/hr0.0 mm/hr 0.29 in7.4 mm
03:35 AM 48.9°F9.4°C 48.2°F9.0°C 94% 3.8 mph W6.1 kmh W 2.9 mph4.7 kmh 29.79 in1008.8 mb 0.05 in1.3 mm 0.00 in/hr0.0 mm/hr 0.29 in7.4 mm
03:40 AM 48.9°F9.4°C 48.2°F9.0°C 94% 3.8 mph W6.1 kmh W 2.9 mph4.7 kmh 29.79 in1008.8 mb 0.05 in1.3 mm 0.00 in/hr0.0 mm/hr 0.29 in7.4 mm
03:45 AM 48.7°F9.3°C 48.2°F9.0°C 94% 3.8 mph W6.1 kmh W 2.9 mph4.7 kmh 29.79 in1008.8 mb 0.00 in0.0 mm 0.00 in/hr0.0 mm/hr 0.29 in7.4 mm
03:50 AM 48.7°F9.3°C 48.2°F9.0°C 94% 3.8 mph W6.1 kmh W 2.9 mph4.7 kmh 29.79 in1008.8 mb 0.00 in0.0 mm 0.00 in/hr0.0 mm/hr 0.29 in7.4 mm
03:55 AM 48.7°F9.3°C 48.2°F9.0°C 94% 3.8 mph W6.1 kmh W 2.9 mph4.7 kmh 29.82 in1009.8 mb 0.00 in0.0 mm 0.00 in/hr0.0 mm/hr 0.29 in7.4 mm
04:00 AM 48.7°F9.3°C 48.2°F9.0°C 95% 3.8 mph W6.1 kmh W 2.9 mph4.7 kmh 29.82 in1009.8 mb 0.00 in0.0 mm 0.00 in/hr0.0 mm/hr 0.29 in7.4 mm
04:05 AM 48.7°F9.3°C 48.2°F9.0°C 95% 3.8 mph W6.1 kmh W 2.9 mph4.7 kmh 29.82 in1009.8 mb 0.00 in0.0 mm 0.00 in/hr0.0 mm/hr 0.29 in7.4 mm
04:10 AM 48.6°F9.2°C 48.2°F9.0°C 95% 3.8 mph W6.1 kmh W 2.9 mph4.7 kmh 29.85 in1010.8 mb 0.00 in0.0 mm 0.00 in/hr0.0 mm/hr 0.29 in7.4 mm
04:15 AM 48.6°F9.2°C 48.2°F9.0°C 95% 3.8 mph W6.1 kmh W 2.9 mph4.7 kmh 29.85 in1010.8 mb 0.00 in0.0 mm 0.00 in/hr0.0 mm/hr 0.29 in7.4 mm
04:20 AM 48.4°F9.1°C 48.2°F9.0°C 95% 3.8 mph W6.1 kmh W 2.9 mph4.7 kmh 29.85 in1010.8 mb 0.00 in0.0 mm 0.00 in/hr0.0 mm/hr 0.29 in7.4 mm
04:25 AM 48.0°F8.9°C 46.4°F8.0°C 94% 3.8 mph W6.1 kmh W 2.9 mph4.7 kmh 29.85 in1010.8 mb 0.04 in1.0 mm 0.48 in/hr12.2 mm/hr 0.33 in8.4 mm
04:30 AM 47.7°F8.7°C 46.4°F8.0°C 94% 3.8 mph W6.1 kmh W 2.9 mph4.7 kmh 29.85 in1010.8 mb 0.04 in1.0 mm 0.00 in/hr0.0 mm/hr 0.33 in8.4 mm
04:35 AM 47.3°F8.5°C 46.4°F8.0°C 94% 3.8 mph W6.1 kmh W 2.9 mph4.7 kmh 29.85 in1010.8 mb 0.04 in1.0 mm 0.00 in/hr0.0 mm/hr 0.33 in8.4 mm
04:40 AM 47.1°F8.4°C 46.4°F8.0°C 94% 3.8 mph W6.1 kmh W 2.9 mph4.7 kmh 29.85 in1010.8 mb 0.04 in1.0 mm 0.00 in/hr0.0 mm/hr 0.33 in8.4 mm
04:45 AM 46.9°F8.3°C 46.4°F8.0°C 94% 3.8 mph W6.1 kmh W 2.9 mph4.7 kmh 29.85 in1010.8 mb 0.04 in1.0 mm 0.00 in/hr0.0 mm/hr 0.33 in8.4 mm
04:50 AM 46.9°F8.3°C 46.4°F8.0°C 94% 3.8 mph W6.1 kmh W 2.9 mph4.7 kmh 29.85 in1010.8 mb 0.04 in1.0 mm 0.00 in/hr0.0 mm/hr 0.33 in8.4 mm
04:55 AM 46.8°F8.2°C 44.6°F7.0°C 94% 3.8 mph W6.1 kmh W 2.9 mph4.7 kmh 29.88 in1011.9 mb 0.04 in1.0 mm 0.00 in/hr0.0 mm/hr 0.33 in8.4 mm
05:00 AM 46.6°F8.1°C 44.6°F7.0°C 94% 3.8 mph W6.1 kmh W 2.9 mph4.7 kmh 29.88 in1011.9 mb 0.08 in2.0 mm 0.04 in/hr1.0 mm/hr 0.37 in9.4 mm
05:05 AM 46.6°F8.1°C 44.6°F7.0°C 94% 3.8 mph W6.1 kmh W 2.9 mph4.7 kmh 29.88 in1011.9 mb 0.08 in2.0 mm 0.00 in/hr0.0 mm/hr 0.37 in9.4 mm
05:10 AM 46.4°F8.0°C 44.6°F7.0°C 94% 3.8 mph W6.1 kmh W 2.9 mph4.7 kmh 29.88 in1011.9 mb 0.08 in2.0 mm 0.00 in/hr0.0 mm/hr 0.37 in9.4 mm
05:15 AM 46.4°F8.0°C 44.6°F7.0°C 94% 3.8 mph W6.1 kmh W 2.9 mph4.7 kmh 29.88 in1011.9 mb 0.08 in2.0 mm 0.00 in/hr0.0 mm/hr 0.37 in9.4 mm
05:20 AM 46.4°F8.0°C 44.6°F7.0°C 94% 3.8 mph W6.1 kmh W 2.9 mph4.7 kmh 29.88 in1011.9 mb 0.08 in2.0 mm 0.00 in/hr0.0 mm/hr 0.37 in9.4 mm
05:25 AM 46.2°F7.9°C 44.6°F7.0°C 94% 3.8 mph W6.1 kmh W 2.9 mph4.7 kmh 29.88 in1011.9 mb 0.04 in1.0 mm 0.00 in/hr0.0 mm/hr 0.37 in9.4 mm
05:30 AM 46.0°F7.8°C 44.6°F7.0°C 94% 3.8 mph W6.1 kmh W 2.9 mph4.7 kmh 29.88 in1011.9 mb 0.04 in1.0 mm 0.00 in/hr0.0 mm/hr 0.37 in9.4 mm
05:35 AM 46.0°F7.8°C 44.6°F7.0°C 94% 3.8 mph W6.1 kmh W 2.9 mph4.7 kmh 29.88 in1011.9 mb 0.04 in1.0 mm 0.00 in/hr0.0 mm/hr 0.37 in9.4 mm
05:40 AM 46.0°F7.8°C 44.6°F7.0°C 94% 3.8 mph W6.1 kmh W 2.9 mph4.7 kmh 29.91 in1012.9 mb 0.04 in1.0 mm 0.00 in/hr0.0 mm/hr 0.37 in9.4 mm
05:45 AM 46.0°F7.8°C 44.6°F7.0°C 95% 3.8 mph W6.1 kmh W 2.9 mph4.7 kmh 29.91 in1012.9 mb 0.04 in1.0 mm 0.00 in/hr0.0 mm/hr 0.37 in9.4 mm
05:50 AM 45.9°F7.7°C 44.6°F7.0°C 95% 3.8 mph W6.1 kmh W 2.9 mph4.7 kmh 29.91 in1012.9 mb 0.04 in1.0 mm 0.00 in/hr0.0 mm/hr 0.37 in9.4 mm
05:55 AM 45.9°F7.7°C 44.6°F7.0°C 95% 3.8 mph W6.1 kmh W 2.9 mph4.7 kmh 29.91 in1012.9 mb 0.04 in1.0 mm 0.00 in/hr0.0 mm/hr 0.37 in9.4 mm
06:00 AM 45.7°F7.6°C 44.6°F7.0°C 95% 3.8 mph W6.1 kmh W 2.9 mph4.7 kmh 29.91 in1012.9 mb 0.00 in0.0 mm 0.00 in/hr0.0 mm/hr 0.37 in9.4 mm
06:05 AM 45.7°F7.6°C 44.6°F7.0°C 95% 3.8 mph W6.1 kmh W 2.9 mph4.7 kmh 29.91 in1012.9 mb 0.00 in0.0 mm 0.00 in/hr0.0 mm/hr 0.37 in9.4 mm
06:10 AM 45.7°F7.6°C 44.6°F7.0°C 95% 3.8 mph W6.1 kmh W 2.9 mph4.7 kmh 29.88 in1011.9 mb 0.00 in0.0 mm 0.00 in/hr0.0 mm/hr 0.37 in9.4 mm
06:15 AM 45.7°F7.6°C 44.6°F7.0°C 95% 3.8 mph W6.1 kmh W 2.9 mph4.7 kmh 29.88 in1011.9 mb 0.00 in0.0 mm 0.00 in/hr0.0 mm/hr 0.37 in9.4 mm
06:20 AM 45.7°F7.6°C 44.6°F7.0°C 95% 3.8 mph W6.1 kmh W 2.9 mph4.7 kmh 29.88 in1011.9 mb 0.00 in0.0 mm 0.00 in/hr0.0 mm/hr 0.37 in9.4 mm
06:25 AM 45.7°F7.6°C 44.6°F7.0°C 95% 3.8 mph W6.1 kmh W 2.9 mph4.7 kmh 29.85 in1010.8 mb 0.04 in1.0 mm 0.48 in/hr12.2 mm/hr 0.41 in10.4 mm
06:30 AM 45.5°F7.5°C 44.6°F7.0°C 95% 3.8 mph W6.1 kmh W 2.9 mph4.7 kmh 29.85 in1010.8 mb 0.04 in1.0 mm 0.00 in/hr0.0 mm/hr 0.41 in10.4 mm
06:35 AM 45.5°F7.5°C 44.6°F7.0°C 95% 3.8 mph W6.1 kmh W 2.9 mph4.7 kmh 29.85 in1010.8 mb 0.04 in1.0 mm 0.00 in/hr0.0 mm/hr 0.41 in10.4 mm
06:40 AM 45.5°F7.5°C 44.6°F7.0°C 95% 3.8 mph W6.1 kmh W 2.9 mph4.7 kmh 29.88 in1011.9 mb 0.04 in1.0 mm 0.00 in/hr0.0 mm/hr 0.41 in10.4 mm
06:45 AM 45.5°F7.5°C 44.6°F7.0°C 94% 3.8 mph W6.1 kmh W 2.9 mph4.7 kmh 29.88 in1011.9 mb 0.04 in1.0 mm 0.00 in/hr0.0 mm/hr 0.41 in10.4 mm
06:50 AM 45.5°F7.5°C 44.6°F7.0°C 94% 3.8 mph W6.1 kmh W 2.9 mph4.7 kmh 29.88 in1011.9 mb 0.04 in1.0 mm 0.00 in/hr0.0 mm/hr 0.41 in10.4 mm
06:55 AM 45.5°F7.5°C 44.6°F7.0°C 95% 3.8 mph W6.1 kmh W 2.9 mph4.7 kmh 29.88 in1011.9 mb 0.04 in1.0 mm 0.00 in/hr0.0 mm/hr 0.41 in10.4 mm
07:00 AM 45.5°F7.5°C 44.6°F7.0°C 95% 3.8 mph W6.1 kmh W 2.9 mph4.7 kmh 29.88 in1011.9 mb 0.08 in2.0 mm 0.04 in/hr1.0 mm/hr 0.45 in11.4 mm
07:05 AM 45.5°F7.5°C 44.6°F7.0°C 95% 3.8 mph W6.1 kmh W 2.9 mph4.7 kmh 29.88 in1011.9 mb 0.12 in3.0 mm 0.48 in/hr12.2 mm/hr 0.49 in12.4 mm
07:10 AM 45.5°F7.5°C 44.6°F7.0°C 95% 3.8 mph W6.1 kmh W 2.9 mph4.7 kmh 29.88 in1011.9 mb 0.12 in3.0 mm 0.00 in/hr0.0 mm/hr 0.49 in12.4 mm
07:15 AM 45.5°F7.5°C 44.6°F7.0°C 94% 3.8 mph W6.1 kmh W 2.9 mph4.7 kmh 29.88 in1011.9 mb 0.17 in4.3 mm 0.60 in/hr15.2 mm/hr 0.54 in13.7 mm
07:20 AM 45.5°F7.5°C 44.6°F7.0°C 94% 3.8 mph W6.1 kmh W 2.9 mph4.7 kmh 29.88 in1011.9 mb 0.17 in4.3 mm 0.00 in/hr0.0 mm/hr 0.54 in13.7 mm
07:25 AM 45.5°F7.5°C 44.6°F7.0°C 94% 3.8 mph W6.1 kmh W 2.9 mph4.7 kmh 29.88 in1011.9 mb 0.13 in3.3 mm 0.00 in/hr0.0 mm/hr 0.54 in13.7 mm
07:30 AM 45.5°F7.5°C 44.6°F7.0°C 94% 3.8 mph W6.1 kmh W 2.9 mph4.7 kmh 29.88 in1011.9 mb 0.16 in4.1 mm 0.36 in/hr9.1 mm/hr 0.57 in14.5 mm
07:35 AM 45.5°F7.5°C 44.6°F7.0°C 95% 3.8 mph W6.1 kmh W 2.9 mph4.7 kmh 29.88 in1011.9 mb 0.16 in4.1 mm 0.00 in/hr0.0 mm/hr 0.57 in14.5 mm
07:40 AM 45.7°F7.6°C 44.6°F7.0°C 95% 3.8 mph W6.1 kmh W 2.9 mph4.7 kmh 29.85 in1010.8 mb 0.16 in4.1 mm 0.00 in/hr0.0 mm/hr 0.57 in14.5 mm
07:45 AM 45.7°F7.6°C 44.6°F7.0°C 95% 3.8 mph W6.1 kmh W 2.9 mph4.7 kmh 29.85 in1010.8 mb 0.21 in5.3 mm 0.60 in/hr15.2 mm/hr 0.62 in15.7 mm
07:50 AM 45.7°F7.6°C 44.6°F7.0°C 95% 3.8 mph W6.1 kmh W 2.9 mph4.7 kmh 29.85 in1010.8 mb 0.21 in5.3 mm 0.00 in/hr0.0 mm/hr 0.62 in15.7 mm
07:55 AM 45.9°F7.7°C 44.6°F7.0°C 95% 3.8 mph W6.1 kmh W 2.9 mph4.7 kmh 29.88 in1011.9 mb 0.25 in6.4 mm 0.48 in/hr12.2 mm/hr 0.66 in16.8 mm
08:00 AM 45.9°F7.7°C 44.6°F7.0°C 95% 3.8 mph W6.1 kmh W 2.9 mph4.7 kmh 29.88 in1011.9 mb 0.21 in5.3 mm 0.00 in/hr0.0 mm/hr 0.66 in16.8 mm
08:05 AM 45.9°F7.7°C 44.6°F7.0°C 95% 3.8 mph W6.1 kmh W 2.9 mph4.7 kmh 29.88 in1011.9 mb 0.17 in4.3 mm 0.00 in/hr0.0 mm/hr 0.66 in16.8 mm
08:10 AM 45.9°F7.7°C 44.6°F7.0°C 95% 3.8 mph W6.1 kmh W 2.9 mph4.7 kmh 29.88 in1011.9 mb 0.17 in4.3 mm 0.00 in/hr0.0 mm/hr 0.66 in16.8 mm
08:15 AM 46.0°F7.8°C 44.6°F7.0°C 95% 3.8 mph W6.1 kmh W 2.9 mph4.7 kmh 29.88 in1011.9 mb 0.16 in4.1 mm 0.00 in/hr0.0 mm/hr 0.70 in17.8 mm
08:20 AM 46.2°F7.9°C 44.6°F7.0°C 95% 3.8 mph W6.1 kmh W 2.9 mph4.7 kmh 29.88 in1011.9 mb 0.16 in4.1 mm 0.00 in/hr0.0 mm/hr 0.70 in17.8 mm
08:25 AM 46.2°F7.9°C 44.6°F7.0°C 95% 3.8 mph W6.1 kmh W 2.9 mph4.7 kmh 29.85 in1010.8 mb 0.20 in5.1 mm 0.48 in/hr12.2 mm/hr 0.74 in18.8 mm
08:30 AM 46.2°F7.9°C 46.4°F8.0°C 96% 3.8 mph W6.1 kmh W 2.9 mph4.7 kmh 29.85 in1010.8 mb 0.17 in4.3 mm 0.00 in/hr0.0 mm/hr 0.74 in18.8 mm
08:35 AM 46.4°F8.0°C 46.4°F8.0°C 96% 3.8 mph W6.1 kmh W 2.9 mph4.7 kmh 29.85 in1010.8 mb 0.21 in5.3 mm 0.48 in/hr12.2 mm/hr 0.78 in19.8 mm
08:40 AM 46.6°F8.1°C 46.4°F8.0°C 96% 3.8 mph W6.1 kmh W 2.9 mph4.7 kmh 29.88 in1011.9 mb 0.21 in5.3 mm 0.00 in/hr0.0 mm/hr 0.78 in19.8 mm
08:45 AM 46.6°F8.1°C 46.4°F8.0°C 96% 3.8 mph W6.1 kmh W 2.9 mph4.7 kmh 29.88 in1011.9 mb 0.16 in4.1 mm 0.00 in/hr0.0 mm/hr 0.78 in19.8 mm
08:50 AM 46.8°F8.2°C 46.4°F8.0°C 96% 3.8 mph W6.1 kmh W 2.9 mph4.7 kmh 29.88 in1011.9 mb 0.20 in5.1 mm 0.48 in/hr12.2 mm/hr 0.82 in20.8 mm
08:55 AM 46.8°F8.2°C 46.4°F8.0°C 96% 3.8 mph W6.1 kmh W 2.9 mph4.7 kmh 29.91 in1012.9 mb 0.16 in4.1 mm 0.00 in/hr0.0 mm/hr 0.82 in20.8 mm
09:00 AM 46.8°F8.2°C 46.4°F8.0°C 96% 3.8 mph W6.1 kmh W 2.9 mph4.7 kmh 29.91 in1012.9 mb 0.21 in5.3 mm 0.05 in/hr1.3 mm/hr 0.87 in22.1 mm
09:05 AM 46.9°F8.3°C 46.4°F8.0°C 96% 3.8 mph W6.1 kmh W 2.9 mph4.7 kmh 29.91 in1012.9 mb 0.21 in5.3 mm 0.00 in/hr0.0 mm/hr 0.87 in22.1 mm
09:10 AM 46.9°F8.3°C 46.4°F8.0°C 96% 3.8 mph W6.1 kmh W 2.9 mph4.7 kmh 29.88 in1011.9 mb 0.25 in6.4 mm 0.48 in/hr12.2 mm/hr 0.91 in23.1 mm
09:15 AM 47.1°F8.4°C 46.4°F8.0°C 96% 3.8 mph W6.1 kmh W 2.9 mph4.7 kmh 29.88 in1011.9 mb 0.21 in5.3 mm 0.00 in/hr0.0 mm/hr 0.91 in23.1 mm
09:20 AM 47.1°F8.4°C 46.4°F8.0°C 96% 3.8 mph W6.1 kmh W 2.9 mph4.7 kmh 29.88 in1011.9 mb 0.21 in5.3 mm 0.00 in/hr0.0 mm/hr 0.91 in23.1 mm
09:25 AM 47.3°F8.5°C 48.2°F9.0°C 96% 3.8 mph W6.1 kmh W 2.9 mph4.7 kmh 29.91 in1012.9 mb 0.21 in5.3 mm 0.00 in/hr0.0 mm/hr 0.95 in24.1 mm
09:30 AM 47.3°F8.5°C 48.2°F9.0°C 96% 3.8 mph W6.1 kmh W 2.9 mph4.7 kmh 29.91 in1012.9 mb 0.21 in5.3 mm 0.00 in/hr0.0 mm/hr 0.95 in24.1 mm
09:35 AM 47.3°F8.5°C 48.2°F9.0°C 96% 3.8 mph W6.1 kmh W 2.9 mph4.7 kmh 29.91 in1012.9 mb 0.21 in5.3 mm 0.00 in/hr0.0 mm/hr 0.99 in25.1 mm
09:40 AM 47.3°F8.5°C 48.2°F9.0°C 96% 3.8 mph W6.1 kmh W 2.9 mph4.7 kmh 29.88 in1011.9 mb 0.21 in5.3 mm 0.00 in/hr0.0 mm/hr 0.99 in25.1 mm
09:45 AM 47.3°F8.5°C 48.2°F9.0°C 96% 3.8 mph W6.1 kmh W 2.9 mph4.7 kmh 29.88 in1011.9 mb 0.25 in6.4 mm 0.48 in/hr12.2 mm/hr 1.03 in26.2 mm
09:50 AM 47.5°F8.6°C 48.2°F9.0°C 96% 3.8 mph W6.1 kmh W 2.9 mph4.7 kmh 29.88 in1011.9 mb 0.21 in5.3 mm 0.00 in/hr0.0 mm/hr 1.03 in26.2 mm
09:55 AM 47.5°F8.6°C 48.2°F9.0°C 96% 3.8 mph W6.1 kmh W 2.9 mph4.7 kmh 29.88 in1011.9 mb 0.21 in5.3 mm 0.00 in/hr0.0 mm/hr 1.03 in26.2 mm
10:00 AM 47.5°F8.6°C 48.2°F9.0°C 96% 3.8 mph W6.1 kmh W 2.9 mph4.7 kmh 29.88 in1011.9 mb 0.20 in5.1 mm 0.00 in/hr0.0 mm/hr 1.07 in27.2 mm
10:05 AM 47.5°F8.6°C 48.2°F9.0°C 96% 3.8 mph W6.1 kmh W 2.9 mph4.7 kmh 29.88 in1011.9 mb 0.20 in5.1 mm 0.00 in/hr0.0 mm/hr 1.07 in27.2 mm
10:10 AM 47.7°F8.7°C 48.2°F9.0°C 96% 3.8 mph W6.1 kmh W 2.9 mph4.7 kmh 29.88 in1011.9 mb 0.20 in5.1 mm 0.00 in/hr0.0 mm/hr 1.11 in28.2 mm
10:15 AM 47.7°F8.7°C 48.2°F9.0°C 96% 3.8 mph W6.1 kmh W 2.9 mph4.7 kmh 29.88 in1011.9 mb 0.20 in5.1 mm 0.00 in/hr0.0 mm/hr 1.11 in28.2 mm
10:20 AM 47.8°F8.8°C 48.2°F9.0°C 96% 3.8 mph W6.1 kmh W 2.9 mph4.7 kmh 29.88 in1011.9 mb 0.25 in6.4 mm 0.60 in/hr15.2 mm/hr 1.16 in29.5 mm
10:25 AM 48.0°F8.9°C 48.2°F9.0°C 96% 3.8 mph W6.1 kmh W 2.9 mph4.7 kmh 29.88 in1011.9 mb 0.21 in5.3 mm 0.00 in/hr0.0 mm/hr 1.16 in29.5 mm
10:30 AM 48.0°F8.9°C 48.2°F9.0°C 96% 3.8 mph W6.1 kmh W 2.9 mph4.7 kmh 29.88 in1011.9 mb 0.17 in4.3 mm 0.00 in/hr0.0 mm/hr 1.16 in29.5 mm
10:35 AM 47.8°F8.8°C 48.2°F9.0°C 96% 3.8 mph W6.1 kmh W 2.9 mph4.7 kmh 29.88 in1011.9 mb 0.17 in4.3 mm 0.00 in/hr0.0 mm/hr 1.16 in29.5 mm
10:40 AM 47.7°F8.7°C 46.4°F8.0°C 95% 3.8 mph W6.1 kmh W 2.9 mph4.7 kmh 29.94 in1013.9 mb 0.21 in5.3 mm 0.48 in/hr12.2 mm/hr 1.20 in30.5 mm
10:45 AM 47.1°F8.4°C 46.4°F8.0°C 95% 3.8 mph W6.1 kmh W 2.9 mph4.7 kmh 29.94 in1013.9 mb 0.17 in4.3 mm 0.00 in/hr0.0 mm/hr 1.20 in30.5 mm
10:50 AM 46.4°F8.0°C 44.6°F7.0°C 94% 3.8 mph W6.1 kmh W 2.9 mph4.7 kmh 29.94 in1013.9 mb 0.21 in5.3 mm 0.48 in/hr12.2 mm/hr 1.24 in31.5 mm
10:55 AM 46.0°F7.8°C 44.6°F7.0°C 94% 3.8 mph W6.1 kmh W 2.9 mph4.7 kmh 29.91 in1012.9 mb 0.21 in5.3 mm 0.00 in/hr0.0 mm/hr 1.24 in31.5 mm
11:00 AM 45.7°F7.6°C 44.6°F7.0°C 94% 3.8 mph W6.1 kmh W 2.9 mph4.7 kmh 29.91 in1012.9 mb 0.17 in4.3 mm 0.00 in/hr0.0 mm/hr 1.24 in31.5 mm
11:05 AM 45.1°F7.3°C 42.8°F6.0°C 93% 3.8 mph W6.1 kmh W 2.9 mph4.7 kmh 29.91 in1012.9 mb 0.17 in4.3 mm 0.00 in/hr0.0 mm/hr 1.24 in31.5 mm
11:10 AM 44.8°F7.1°C 42.8°F6.0°C 93% 3.8 mph W6.1 kmh W 2.9 mph4.7 kmh 29.91 in1012.9 mb 0.13 in3.3 mm 0.00 in/hr0.0 mm/hr 1.24 in31.5 mm
11:15 AM 44.6°F7.0°C 42.8°F6.0°C 92% 3.8 mph W6.1 kmh W 2.9 mph4.7 kmh 29.91 in1012.9 mb 0.13 in3.3 mm 0.00 in/hr0.0 mm/hr 1.24 in31.5 mm
11:20 AM 44.4°F6.9°C 42.8°F6.0°C 92% 3.8 mph W6.1 kmh W 2.9 mph4.7 kmh 29.91 in1012.9 mb 0.08 in2.0 mm 0.00 in/hr0.0 mm/hr 1.24 in31.5 mm
11:25 AM 44.1°F6.7°C 42.8°F6.0°C 92% 3.8 mph W6.1 kmh W 2.9 mph4.7 kmh 29.94 in1013.9 mb 0.08 in2.0 mm 0.00 in/hr0.0 mm/hr 1.24 in31.5 mm
11:30 AM 44.1°F6.7°C 42.8°F6.0°C 92% 3.8 mph W6.1 kmh W 2.9 mph4.7 kmh 29.94 in1013.9 mb 0.12 in3.0 mm 0.48 in/hr12.2 mm/hr 1.28 in32.5 mm
11:35 AM 43.9°F6.6°C 42.8°F6.0°C 92% 3.8 mph W6.1 kmh W 2.9 mph4.7 kmh 29.94 in1013.9 mb 0.12 in3.0 mm 0.00 in/hr0.0 mm/hr 1.28 in32.5 mm
11:40 AM 43.7°F6.5°C 42.8°F6.0°C 93% 3.8 mph W6.1 kmh W 2.9 mph4.7 kmh 29.97 in1014.9 mb 0.08 in2.0 mm 0.00 in/hr0.0 mm/hr 1.28 in32.5 mm
11:45 AM 43.7°F6.5°C 42.8°F6.0°C 92% 3.8 mph W6.1 kmh W 2.9 mph4.7 kmh 29.97 in1014.9 mb 0.08 in2.0 mm 0.00 in/hr0.0 mm/hr 1.28 in32.5 mm
11:50 AM 43.5°F6.4°C 41.0°F5.0°C 92% 3.8 mph W6.1 kmh W 2.9 mph4.7 kmh 29.97 in1014.9 mb 0.04 in1.0 mm 0.00 in/hr0.0 mm/hr 1.28 in32.5 mm
11:55 AM 43.3°F6.3°C 41.0°F5.0°C 92% 3.8 mph W6.1 kmh W 2.9 mph4.7 kmh 29.91 in1012.9 mb 0.04 in1.0 mm 0.00 in/hr0.0 mm/hr 1.28 in32.5 mm
12:00 PM 43.2°F6.2°C 41.0°F5.0°C 92% 3.8 mph W6.1 kmh W 2.9 mph4.7 kmh 29.91 in1012.9 mb 0.08 in2.0 mm 0.04 in/hr1.0 mm/hr 1.32 in33.5 mm
12:05 PM 42.8°F6.0°C 41.0°F5.0°C 92% 3.8 mph W6.1 kmh W 2.9 mph4.7 kmh 29.91 in1012.9 mb 0.08 in2.0 mm 0.00 in/hr0.0 mm/hr 1.32 in33.5 mm
12:10 PM 42.6°F5.9°C 41.0°F5.0°C 92% 3.8 mph W6.1 kmh W 2.9 mph4.7 kmh 29.94 in1013.9 mb 0.08 in2.0 mm 0.00 in/hr0.0 mm/hr 1.32 in33.5 mm
12:15 PM 42.4°F5.8°C 41.0°F5.0°C 92% 3.8 mph W6.1 kmh W 2.9 mph4.7 kmh 29.94 in1013.9 mb 0.12 in3.0 mm 0.48 in/hr12.2 mm/hr 1.36 in34.5 mm
12:20 PM 42.3°F5.7°C 41.0°F5.0°C 92% 3.8 mph W6.1 kmh W 2.9 mph4.7 kmh 29.94 in1013.9 mb 0.12 in3.0 mm 0.00 in/hr0.0 mm/hr 1.36 in34.5 mm
12:25 PM 42.3°F5.7°C 41.0°F5.0°C 92% 3.8 mph W6.1 kmh W 2.9 mph4.7 kmh 29.94 in1013.9 mb 0.17 in4.3 mm 0.60 in/hr15.2 mm/hr 1.41 in35.8 mm
12:30 PM 42.3°F5.7°C 41.0°F5.0°C 92% 3.8 mph W6.1 kmh W 2.9 mph4.7 kmh 29.94 in1013.9 mb 0.13 in3.3 mm 0.00 in/hr0.0 mm/hr 1.41 in35.8 mm
12:35 PM 42.3°F5.7°C 41.0°F5.0°C 92% 3.8 mph W6.1 kmh W 2.9 mph4.7 kmh 29.94 in1013.9 mb 0.17 in4.3 mm 0.48 in/hr12.2 mm/hr 1.45 in36.8 mm
12:40 PM 42.3°F5.7°C 41.0°F5.0°C 92% 3.8 mph W6.1 kmh W 2.9 mph4.7 kmh 29.94 in1013.9 mb 0.17 in4.3 mm 0.00 in/hr0.0 mm/hr 1.45 in36.8 mm
12:45 PM 42.4°F5.8°C 41.0°F5.0°C 92% 3.8 mph W6.1 kmh W 2.9 mph4.7 kmh 29.94 in1013.9 mb 0.17 in4.3 mm 0.00 in/hr0.0 mm/hr 1.45 in36.8 mm
12:50 PM 42.4°F5.8°C 41.0°F5.0°C 93% 3.8 mph W6.1 kmh W 2.9 mph4.7 kmh 29.94 in1013.9 mb 0.21 in5.3 mm 0.48 in/hr12.2 mm/hr 1.49 in37.8 mm
12:55 PM 42.4°F5.8°C 41.0°F5.0°C 93% 3.8 mph W6.1 kmh W 2.9 mph4.7 kmh 29.91 in1012.9 mb 0.21 in5.3 mm 0.00 in/hr0.0 mm/hr 1.49 in37.8 mm
01:00 PM 42.4°F5.8°C 41.0°F5.0°C 93% 3.8 mph W6.1 kmh W 2.9 mph4.7 kmh 29.91 in1012.9 mb 0.17 in4.3 mm 0.00 in/hr0.0 mm/hr 1.49 in37.8 mm
01:05 PM 42.4°F5.8°C 41.0°F5.0°C 93% 3.8 mph W6.1 kmh W 2.9 mph4.7 kmh 29.91 in1012.9 mb 0.21 in5.3 mm 0.48 in/hr12.2 mm/hr 1.53 in38.9 mm
01:10 PM 42.4°F5.8°C 41.0°F5.0°C 93% 3.8 mph W6.1 kmh W 2.9 mph4.7 kmh 29.94 in1013.9 mb 0.25 in6.4 mm 0.48 in/hr12.2 mm/hr 1.57 in39.9 mm
01:15 PM 42.4°F5.8°C 41.0°F5.0°C 93% 3.8 mph W6.1 kmh W 2.9 mph4.7 kmh 29.94 in1013.9 mb 0.21 in5.3 mm 0.00 in/hr0.0 mm/hr 1.57 in39.9 mm
01:20 PM 42.4°F5.8°C 41.0°F5.0°C 93% 3.8 mph W6.1 kmh W 2.9 mph4.7 kmh 29.94 in1013.9 mb 0.21 in5.3 mm 0.00 in/hr0.0 mm/hr 1.57 in39.9 mm
01:25 PM 42.4°F5.8°C 41.0°F5.0°C 93% 3.8 mph W6.1 kmh W 2.9 mph4.7 kmh 29.91 in1012.9 mb 0.16 in4.1 mm 0.00 in/hr0.0 mm/hr 1.57 in39.9 mm
01:30 PM 42.6°F5.9°C 41.0°F5.0°C 93% 3.8 mph W6.1 kmh W 2.9 mph4.7 kmh 29.91 in1012.9 mb 0.20 in5.1 mm 0.48 in/hr12.2 mm/hr 1.61 in40.9 mm
01:35 PM 42.6°F5.9°C 41.0°F5.0°C 93% 3.8 mph W6.1 kmh W 2.9 mph4.7 kmh 29.91 in1012.9 mb 0.16 in4.1 mm 0.00 in/hr0.0 mm/hr 1.61 in40.9 mm
01:40 PM 42.8°F6.0°C 41.0°F5.0°C 93% 3.8 mph W6.1 kmh W 2.9 mph4.7 kmh 29.91 in1012.9 mb 0.16 in4.1 mm 0.00 in/hr0.0 mm/hr 1.61 in40.9 mm
01:45 PM 42.8°F6.0°C 41.0°F5.0°C 93% 3.8 mph W6.1 kmh W 2.9 mph4.7 kmh 29.91 in1012.9 mb 0.16 in4.1 mm 0.00 in/hr0.0 mm/hr 1.61 in40.9 mm
01:50 PM 42.8°F6.0°C 41.0°F5.0°C 93% 3.8 mph W6.1 kmh W 2.9 mph4.7 kmh 29.91 in1012.9 mb 0.16 in4.1 mm 0.00 in/hr0.0 mm/hr 1.65 in41.9 mm
01:55 PM 42.8°F6.0°C 41.0°F5.0°C 93% 3.8 mph W6.1 kmh W 2.9 mph4.7 kmh 29.94 in1013.9 mb 0.16 in4.1 mm 0.00 in/hr0.0 mm/hr 1.65 in41.9 mm
02:00 PM 42.8°F6.0°C 41.0°F5.0°C 93% 3.8 mph W6.1 kmh W 2.9 mph4.7 kmh 29.94 in1013.9 mb 0.16 in4.1 mm 0.00 in/hr0.0 mm/hr 1.65 in41.9 mm
02:05 PM 42.8°F6.0°C 41.0°F5.0°C 92% 3.8 mph W6.1 kmh W 2.9 mph4.7 kmh 29.94 in1013.9 mb 0.12 in3.0 mm 0.00 in/hr0.0 mm/hr 1.65 in41.9 mm
02:10 PM 42.8°F6.0°C 41.0°F5.0°C 92% 3.8 mph W6.1 kmh W 2.9 mph4.7 kmh 29.94 in1013.9 mb 0.08 in2.0 mm 0.00 in/hr0.0 mm/hr 1.65 in41.9 mm
02:15 PM 42.8°F6.0°C 41.0°F5.0°C 92% 3.8 mph W6.1 kmh W 2.9 mph4.7 kmh 29.94 in1013.9 mb 0.08 in2.0 mm 0.00 in/hr0.0 mm/hr 1.65 in41.9 mm
02:20 PM 42.8°F6.0°C 41.0°F5.0°C 92% 3.8 mph W6.1 kmh W 2.9 mph4.7 kmh 29.94 in1013.9 mb 0.08 in2.0 mm 0.00 in/hr0.0 mm/hr 1.65 in41.9 mm
02:25 PM 42.8°F6.0°C 41.0°F5.0°C 92% 3.8 mph W6.1 kmh W 2.9 mph4.7 kmh 29.91 in1012.9 mb 0.08 in2.0 mm 0.00 in/hr0.0 mm/hr 1.65 in41.9 mm
02:30 PM 42.8°F6.0°C 41.0°F5.0°C 92% 3.8 mph W6.1 kmh W 2.9 mph4.7 kmh 29.91 in1012.9 mb 0.04 in1.0 mm 0.00 in/hr0.0 mm/hr 1.65 in41.9 mm
02:35 PM 42.6°F5.9°C 41.0°F5.0°C 92% 3.8 mph W6.1 kmh W 2.9 mph4.7 kmh 29.91 in1012.9 mb 0.04 in1.0 mm 0.00 in/hr0.0 mm/hr 1.65 in41.9 mm
02:40 PM 42.4°F5.8°C 41.0°F5.0°C 92% 3.8 mph W6.1 kmh W 2.9 mph4.7 kmh 29.91 in1012.9 mb 0.04 in1.0 mm 0.00 in/hr0.0 mm/hr 1.65 in41.9 mm
02:45 PM 42.3°F5.7°C 41.0°F5.0°C 91% 3.8 mph W6.1 kmh W 2.9 mph4.7 kmh 29.91 in1012.9 mb 0.04 in1.0 mm 0.00 in/hr0.0 mm/hr 1.65 in41.9 mm
02:50 PM 42.1°F5.6°C 41.0°F5.0°C 91% 3.8 mph W6.1 kmh W 2.9 mph4.7 kmh 29.91 in1012.9 mb 0.00 in0.0 mm 0.00 in/hr0.0 mm/hr 1.65 in41.9 mm
02:55 PM 41.9°F5.5°C 41.0°F5.0°C 91% 3.8 mph W6.1 kmh W 2.9 mph4.7 kmh 29.91 in1012.9 mb 0.00 in0.0 mm 0.00 in/hr0.0 mm/hr 1.65 in41.9 mm
03:00 PM 41.7°F5.4°C 39.2°F4.0°C 90% 3.8 mph W6.1 kmh W 2.9 mph4.7 kmh 29.91 in1012.9 mb 0.00 in0.0 mm 0.00 in/hr0.0 mm/hr 1.65 in41.9 mm
03:05 PM 41.5°F5.3°C 39.2°F4.0°C 91% 3.8 mph W6.1 kmh W 2.9 mph4.7 kmh 29.91 in1012.9 mb 0.00 in0.0 mm 0.00 in/hr0.0 mm/hr 1.65 in41.9 mm
03:10 PM 41.5°F5.3°C 39.2°F4.0°C 91% 3.8 mph W6.1 kmh W 2.9 mph4.7 kmh 29.88 in1011.9 mb 0.00 in0.0 mm 0.00 in/hr0.0 mm/hr 1.65 in41.9 mm
03:15 PM 41.4°F5.2°C 39.2°F4.0°C 91% 3.8 mph W6.1 kmh W 2.9 mph4.7 kmh 29.88 in1011.9 mb 0.00 in0.0 mm 0.00 in/hr0.0 mm/hr 1.65 in41.9 mm
03:20 PM 41.2°F5.1°C 39.2°F4.0°C 90% 3.8 mph W6.1 kmh W 2.9 mph4.7 kmh 29.88 in1011.9 mb 0.00 in0.0 mm 0.00 in/hr0.0 mm/hr 1.65 in41.9 mm
03:25 PM 41.2°F5.1°C 39.2°F4.0°C 90% 3.8 mph W6.1 kmh W 2.9 mph4.7 kmh 29.91 in1012.9 mb 0.00 in0.0 mm 0.00 in/hr0.0 mm/hr 1.65 in41.9 mm
03:30 PM 41.0°F5.0°C 39.2°F4.0°C 91% 3.8 mph W6.1 kmh W 2.9 mph4.7 kmh 29.91 in1012.9 mb 0.00 in0.0 mm 0.00 in/hr0.0 mm/hr 1.65 in41.9 mm
03:35 PM 40.8°F4.9°C 39.2°F4.0°C 91% 3.8 mph W6.1 kmh W 2.9 mph4.7 kmh 29.91 in1012.9 mb 0.05 in1.3 mm 0.60 in/hr15.2 mm/hr 1.70 in43.2 mm
03:40 PM 40.6°F4.8°C 37.4°F3.0°C 91% 3.8 mph W6.1 kmh W 2.9 mph4.7 kmh 29.91 in1012.9 mb 0.05 in1.3 mm 0.00 in/hr0.0 mm/hr 1.70 in43.2 mm
03:45 PM 40.5°F4.7°C 37.4°F3.0°C 90% 3.8 mph W6.1 kmh W 2.9 mph4.7 kmh 29.91 in1012.9 mb 0.05 in1.3 mm 0.00 in/hr0.0 mm/hr 1.70 in43.2 mm
03:50 PM 40.3°F4.6°C 37.4°F3.0°C 90% 3.8 mph W6.1 kmh W 2.9 mph4.7 kmh 29.91 in1012.9 mb 0.05 in1.3 mm 0.00 in/hr0.0 mm/hr 1.70 in43.2 mm
03:55 PM 40.1°F4.5°C 37.4°F3.0°C 90% 3.8 mph W6.1 kmh W 2.9 mph4.7 kmh 29.91 in1012.9 mb 0.05 in1.3 mm 0.00 in/hr0.0 mm/hr 1.70 in43.2 mm
04:00 PM 39.9°F4.4°C 37.4°F3.0°C 90% 3.8 mph W6.1 kmh W 2.9 mph4.7 kmh 29.91 in1012.9 mb 0.05 in1.3 mm 0.00 in/hr0.0 mm/hr 1.70 in43.2 mm
04:05 PM 39.7°F4.3°C 37.4°F3.0°C 90% 3.8 mph W6.1 kmh W 2.9 mph4.7 kmh 29.91 in1012.9 mb 0.05 in1.3 mm 0.00 in/hr0.0 mm/hr 1.70 in43.2 mm
04:10 PM 39.4°F4.1°C 37.4°F3.0°C 90% 3.8 mph W6.1 kmh W 2.9 mph4.7 kmh 29.88 in1011.9 mb 0.05 in1.3 mm 0.00 in/hr0.0 mm/hr 1.70 in43.2 mm
04:15 PM 39.2°F4.0°C 37.4°F3.0°C 90% 3.8 mph W6.1 kmh W 2.9 mph4.7 kmh 29.88 in1011.9 mb 0.05 in1.3 mm 0.00 in/hr0.0 mm/hr 1.70 in43.2 mm
04:20 PM 39.0°F3.9°C 37.4°F3.0°C 90% 3.8 mph W6.1 kmh W 2.9 mph4.7 kmh 29.88 in1011.9 mb 0.05 in1.3 mm 0.00 in/hr0.0 mm/hr 1.70 in43.2 mm
04:25 PM 38.8°F3.8°C 35.6°F2.0°C 90% 3.8 mph W6.1 kmh W 2.9 mph4.7 kmh 29.91 in1012.9 mb 0.09 in2.3 mm 0.48 in/hr12.2 mm/hr 1.74 in44.2 mm
04:30 PM 38.7°F3.7°C 35.6°F2.0°C 90% 3.8 mph W6.1 kmh W 2.9 mph4.7 kmh 29.91 in1012.9 mb 0.09 in2.3 mm 0.00 in/hr0.0 mm/hr 1.74 in44.2 mm
04:35 PM 38.7°F3.7°C 35.6°F2.0°C 90% 3.8 mph W6.1 kmh W 2.9 mph4.7 kmh 29.91 in1012.9 mb 0.04 in1.0 mm 0.00 in/hr0.0 mm/hr 1.74 in44.2 mm
04:40 PM 38.3°F3.5°C 35.6°F2.0°C 90% 3.8 mph W6.1 kmh W 2.9 mph4.7 kmh 29.91 in1012.9 mb 0.04 in1.0 mm 0.00 in/hr0.0 mm/hr 1.74 in44.2 mm
04:45 PM 38.1°F3.4°C 35.6°F2.0°C 89% 3.8 mph W6.1 kmh W 2.9 mph4.7 kmh 29.91 in1012.9 mb 0.08 in2.0 mm 0.48 in/hr12.2 mm/hr 1.78 in45.2 mm
04:50 PM 37.8°F3.2°C 35.6°F2.0°C 89% 3.8 mph W6.1 kmh W 2.9 mph4.7 kmh 29.91 in1012.9 mb 0.08 in2.0 mm 0.00 in/hr0.0 mm/hr 1.78 in45.2 mm
04:55 PM 37.4°F3.0°C 33.8°F1.0°C 88% 3.8 mph W6.1 kmh W 2.9 mph4.7 kmh 29.94 in1013.9 mb 0.12 in3.0 mm 0.48 in/hr12.2 mm/hr 1.82 in46.2 mm
05:00 PM 37.0°F2.8°C 33.8°F1.0°C 88% 3.8 mph W6.1 kmh W 2.9 mph4.7 kmh 29.94 in1013.9 mb 0.12 in3.0 mm 0.00 in/hr0.0 mm/hr 1.82 in46.2 mm
05:05 PM 37.0°F2.8°C 33.8°F1.0°C 88% 3.8 mph W6.1 kmh W 2.9 mph4.7 kmh 29.94 in1013.9 mb 0.16 in4.1 mm 0.48 in/hr12.2 mm/hr 1.86 in47.2 mm
05:10 PM 36.7°F2.6°C 33.8°F1.0°C 88% 3.8 mph W6.1 kmh W 2.9 mph4.7 kmh 29.94 in1013.9 mb 0.16 in4.1 mm 0.00 in/hr0.0 mm/hr 1.86 in47.2 mm
05:15 PM 36.7°F2.6°C 33.8°F1.0°C 88% 3.8 mph W6.1 kmh W 2.9 mph4.7 kmh 29.94 in1013.9 mb 0.20 in5.1 mm 0.48 in/hr12.2 mm/hr 1.90 in48.3 mm
05:20 PM 36.5°F2.5°C 33.8°F1.0°C 88% 3.8 mph W6.1 kmh W 2.9 mph4.7 kmh 29.94 in1013.9 mb 0.20 in5.1 mm 0.00 in/hr0.0 mm/hr 1.90 in48.3 mm
05:25 PM 36.5°F2.5°C 33.8°F1.0°C 89% 3.8 mph W6.1 kmh W 2.9 mph4.7 kmh 29.97 in1014.9 mb 0.16 in4.1 mm 0.00 in/hr0.0 mm/hr 1.90 in48.3 mm
05:30 PM 36.3°F2.4°C 33.8°F1.0°C 89% 3.8 mph W6.1 kmh W 2.9 mph4.7 kmh 29.97 in1014.9 mb 0.16 in4.1 mm 0.00 in/hr0.0 mm/hr 1.90 in48.3 mm
05:35 PM 36.0°F2.2°C 33.8°F1.0°C 89% 3.8 mph W6.1 kmh W 2.9 mph4.7 kmh 29.97 in1014.9 mb 0.16 in4.1 mm 0.00 in/hr0.0 mm/hr 1.90 in48.3 mm
05:40 PM 36.0°F2.2°C 33.8°F1.0°C 89% 3.8 mph W6.1 kmh W 2.9 mph4.7 kmh 29.94 in1013.9 mb 0.16 in4.1 mm 0.00 in/hr0.0 mm/hr 1.90 in48.3 mm
05:45 PM 35.8°F2.1°C 33.8°F1.0°C 89% 3.8 mph W6.1 kmh W 2.9 mph4.7 kmh 29.94 in1013.9 mb 0.12 in3.0 mm 0.00 in/hr0.0 mm/hr 1.90 in48.3 mm
05:50 PM 35.8°F2.1°C 33.8°F1.0°C 89% 3.8 mph W6.1 kmh W 2.9 mph4.7 kmh 29.94 in1013.9 mb 0.13 in3.3 mm 0.12 in/hr3.0 mm/hr 1.95 in49.5 mm
05:55 PM 35.6°F2.0°C 33.8°F1.0°C 89% 3.8 mph W6.1 kmh W 2.9 mph4.7 kmh 29.97 in1014.9 mb 0.13 in3.3 mm 0.00 in/hr0.0 mm/hr 1.95 in49.5 mm
06:00 PM 35.6°F2.0°C 33.8°F1.0°C 89% 3.8 mph W6.1 kmh W 2.9 mph4.7 kmh 29.97 in1014.9 mb 0.13 in3.3 mm 0.00 in/hr0.0 mm/hr 1.95 in49.5 mm
06:05 PM 35.6°F2.0°C 33.8°F1.0°C 89% 3.8 mph W6.1 kmh W 2.9 mph4.7 kmh 29.97 in1014.9 mb 0.09 in2.3 mm 0.00 in/hr0.0 mm/hr 1.95 in49.5 mm
06:10 PM 35.4°F1.9°C 33.8°F1.0°C 89% 3.8 mph W6.1 kmh W 2.9 mph4.7 kmh 29.97 in1014.9 mb 0.09 in2.3 mm 0.00 in/hr0.0 mm/hr 1.95 in49.5 mm
06:15 PM 35.2°F1.8°C 32.0°F0.0°C 89% 3.8 mph W6.1 kmh W 2.9 mph4.7 kmh 29.97 in1014.9 mb 0.05 in1.3 mm 0.00 in/hr0.0 mm/hr 1.95 in49.5 mm
06:20 PM 35.2°F1.8°C 32.0°F0.0°C 89% 3.8 mph W6.1 kmh W 2.9 mph4.7 kmh 29.97 in1014.9 mb 0.05 in1.3 mm 0.00 in/hr0.0 mm/hr 1.95 in49.5 mm
06:25 PM 35.1°F1.7°C 32.0°F0.0°C 89% 3.8 mph W6.1 kmh W 2.9 mph4.7 kmh 29.97 in1014.9 mb 0.05 in1.3 mm 0.00 in/hr0.0 mm/hr 1.95 in49.5 mm
06:30 PM 34.9°F1.6°C 32.0°F0.0°C 89% 3.8 mph W6.1 kmh W 2.9 mph4.7 kmh 29.97 in1014.9 mb 0.08 in2.0 mm 0.36 in/hr9.1 mm/hr 1.98 in50.3 mm
06:35 PM 34.9°F1.6°C 32.0°F0.0°C 89% 3.8 mph W6.1 kmh W 2.9 mph4.7 kmh 29.97 in1014.9 mb 0.08 in2.0 mm 0.00 in/hr0.0 mm/hr 1.98 in50.3 mm
06:40 PM 34.7°F1.5°C 32.0°F0.0°C 87% 3.8 mph W6.1 kmh W 2.9 mph4.7 kmh 30.00 in1015.9 mb 0.08 in2.0 mm 0.00 in/hr0.0 mm/hr 1.98 in50.3 mm
06:45 PM 34.5°F1.4°C 32.0°F0.0°C 87% 3.8 mph W6.1 kmh W 2.9 mph4.7 kmh 30.00 in1015.9 mb 0.08 in2.0 mm 0.00 in/hr0.0 mm/hr 1.98 in50.3 mm
06:50 PM 34.5°F1.4°C 32.0°F0.0°C 87% 3.8 mph W6.1 kmh W 2.9 mph4.7 kmh 30.00 in1015.9 mb 0.03 in0.8 mm 0.00 in/hr0.0 mm/hr 1.98 in50.3 mm
07:15 PM 34.2°F1.2°C 32.0°F0.0°C 89% 3.8 mph W6.1 kmh W 2.9 mph4.7 kmh 30.03 in1016.9 mb 0.03 in0.8 mm 0.00 in/hr0.0 mm/hr 1.98 in50.3 mm
07:20 PM 34.2°F1.2°C 32.0°F0.0°C 89% 3.8 mph W6.1 kmh W 2.9 mph4.7 kmh 30.03 in1016.9 mb 0.03 in0.8 mm 0.00 in/hr0.0 mm/hr 1.98 in50.3 mm
07:25 PM 34.2°F1.2°C 32.0°F0.0°C 89% 3.8 mph W6.1 kmh W 2.9 mph4.7 kmh 30.06 in1017.9 mb 0.03 in0.8 mm 0.00 in/hr0.0 mm/hr 1.98 in50.3 mm
07:30 PM 34.2°F1.2°C 32.0°F0.0°C 89% 3.8 mph W6.1 kmh W 2.9 mph4.7 kmh 30.06 in1017.9 mb 0.05 in1.3 mm 0.24 in/hr6.1 mm/hr 2.03 in51.6 mm
07:35 PM 34.0°F1.1°C 32.0°F0.0°C 89% 3.8 mph W6.1 kmh W 2.9 mph4.7 kmh 30.06 in1017.9 mb 0.05 in1.3 mm 0.00 in/hr0.0 mm/hr 2.03 in51.6 mm
07:40 PM 34.0°F1.1°C 32.0°F0.0°C 89% 3.8 mph W6.1 kmh W 2.9 mph4.7 kmh 30.06 in1017.9 mb 0.05 in1.3 mm 0.00 in/hr0.0 mm/hr 2.03 in51.6 mm
07:45 PM 34.0°F1.1°C 32.0°F0.0°C 89% 3.8 mph W6.1 kmh W 2.9 mph4.7 kmh 30.06 in1017.9 mb 0.05 in1.3 mm 0.00 in/hr0.0 mm/hr 2.03 in51.6 mm
07:50 PM 34.0°F1.1°C 32.0°F0.0°C 89% 3.8 mph W6.1 kmh W 2.9 mph4.7 kmh 30.06 in1017.9 mb 0.09 in2.3 mm 0.48 in/hr12.2 mm/hr 2.07 in52.6 mm
07:55 PM 34.0°F1.1°C 32.0°F0.0°C 89% 3.8 mph W6.1 kmh W 2.9 mph4.7 kmh 30.06 in1017.9 mb 0.09 in2.3 mm 0.00 in/hr0.0 mm/hr 2.07 in52.6 mm
08:00 PM 33.8°F1.0°C 32.0°F0.0°C 89% 3.8 mph W6.1 kmh W 2.9 mph4.7 kmh 30.06 in1017.9 mb 0.09 in2.3 mm 0.00 in/hr0.0 mm/hr 2.07 in52.6 mm
08:05 PM 33.8°F1.0°C 32.0°F0.0°C 89% 3.8 mph W6.1 kmh W 2.9 mph4.7 kmh 30.06 in1017.9 mb 0.09 in2.3 mm 0.00 in/hr0.0 mm/hr 2.07 in52.6 mm
08:10 PM 33.6°F0.9°C 32.0°F0.0°C 89% 3.8 mph W6.1 kmh W 2.9 mph4.7 kmh 30.06 in1017.9 mb 0.09 in2.3 mm 0.00 in/hr0.0 mm/hr 2.07 in52.6 mm
08:15 PM 33.4°F0.8°C 32.0°F0.0°C 89% 3.8 mph W6.1 kmh W 2.9 mph4.7 kmh 30.06 in1017.9 mb 0.09 in2.3 mm 0.00 in/hr0.0 mm/hr 2.07 in52.6 mm
08:20 PM 33.3°F0.7°C 30.2°F-1.0°C 88% 3.8 mph W6.1 kmh W 2.9 mph4.7 kmh 30.06 in1017.9 mb 0.09 in2.3 mm 0.00 in/hr0.0 mm/hr 2.07 in52.6 mm
08:25 PM 33.3°F0.7°C 30.2°F-1.0°C 88% 3.8 mph W6.1 kmh W 2.9 mph4.7 kmh 30.06 in1017.9 mb 0.09 in2.3 mm 0.00 in/hr0.0 mm/hr 2.07 in52.6 mm
08:30 PM 33.1°F0.6°C 30.2°F-1.0°C 88% 3.8 mph W6.1 kmh W 2.9 mph4.7 kmh 30.06 in1017.9 mb 0.04 in1.0 mm 0.00 in/hr0.0 mm/hr 2.07 in52.6 mm
08:35 PM 32.9°F0.5°C 30.2°F-1.0°C 88% 3.8 mph W6.1 kmh W 2.9 mph4.7 kmh 30.06 in1017.9 mb 0.04 in1.0 mm 0.00 in/hr0.0 mm/hr 2.07 in52.6 mm
08:40 PM 32.7°F0.4°C 30.2°F-1.0°C 88% 3.8 mph W6.1 kmh W 2.9 mph4.7 kmh 30.03 in1016.9 mb 0.08 in2.0 mm 0.48 in/hr12.2 mm/hr 2.11 in53.6 mm
08:45 PM 32.5°F0.3°C 30.2°F-1.0°C 88% 3.8 mph W6.1 kmh W 2.9 mph4.7 kmh 30.03 in1016.9 mb 0.08 in2.0 mm 0.00 in/hr0.0 mm/hr 2.11 in53.6 mm
08:50 PM 32.5°F0.3°C 30.2°F-1.0°C 88% 3.8 mph W6.1 kmh W 2.9 mph4.7 kmh 30.03 in1016.9 mb 0.04 in1.0 mm 0.00 in/hr0.0 mm/hr 2.11 in53.6 mm
08:55 PM 32.4°F0.2°C 30.2°F-1.0°C 88% 3.8 mph W6.1 kmh W 2.9 mph4.7 kmh 30.06 in1017.9 mb 0.04 in1.0 mm 0.00 in/hr0.0 mm/hr 2.11 in53.6 mm
09:00 PM 32.2°F0.1°C 30.2°F-1.0°C 88% 3.8 mph W6.1 kmh W 2.9 mph4.7 kmh 30.06 in1017.9 mb 0.04 in1.0 mm 0.00 in/hr0.0 mm/hr 2.11 in53.6 mm
09:05 PM 32.2°F0.1°C 30.2°F-1.0°C 88% 3.8 mph W6.1 kmh W 2.9 mph4.7 kmh 30.06 in1017.9 mb 0.04 in1.0 mm 0.00 in/hr0.0 mm/hr 2.11 in53.6 mm
09:10 PM 32.2°F0.1°C 30.2°F-1.0°C 88% 3.8 mph W6.1 kmh W 2.9 mph4.7 kmh 30.03 in1016.9 mb 0.04 in1.0 mm 0.00 in/hr0.0 mm/hr 2.11 in53.6 mm
09:15 PM 32.2°F0.1°C 30.2°F-1.0°C 88% 3.8 mph W6.1 kmh W 2.9 mph4.7 kmh 30.03 in1016.9 mb 0.04 in1.0 mm 0.00 in/hr0.0 mm/hr 2.11 in53.6 mm
09:20 PM 32.0°F0.0°C 26.6°F-3.0°C 88% 3.8 mph W6.1 kmh W 2.9 mph4.7 kmh 30.03 in1016.9 mb 0.04 in1.0 mm 0.00 in/hr0.0 mm/hr 2.11 in53.6 mm
09:25 PM 32.0°F0.0°C 26.6°F-3.0°C 87% 3.8 mph W6.1 kmh W 2.9 mph4.7 kmh 30.06 in1017.9 mb 0.04 in1.0 mm 0.00 in/hr0.0 mm/hr 2.11 in53.6 mm
09:30 PM 32.0°F0.0°C 26.6°F-3.0°C 88% 3.8 mph W6.1 kmh W 2.9 mph4.7 kmh 30.06 in1017.9 mb 0.04 in1.0 mm 0.00 in/hr0.0 mm/hr 2.11 in53.6 mm
09:35 PM 32.0°F0.0°C 26.6°F-3.0°C 88% 3.8 mph W6.1 kmh W 2.9 mph4.7 kmh 30.06 in1017.9 mb 0.04 in1.0 mm 0.00 in/hr0.0 mm/hr 2.11 in53.6 mm
09:40 PM 32.0°F0.0°C 26.6°F-3.0°C 88% 3.8 mph W6.1 kmh W 2.9 mph4.7 kmh 30.06 in1017.9 mb 0.00 in0.0 mm 0.00 in/hr0.0 mm/hr 2.11 in53.6 mm
09:45 PM 32.0°F0.0°C 26.6°F-3.0°C 87% 3.8 mph W6.1 kmh W 2.9 mph4.7 kmh 30.06 in1017.9 mb 0.00 in0.0 mm 0.00 in/hr0.0 mm/hr 2.11 in53.6 mm
09:50 PM 32.0°F0.0°C 26.6°F-3.0°C 87% 3.8 mph W6.1 kmh W 2.9 mph4.7 kmh 30.06 in1017.9 mb 0.00 in0.0 mm 0.00 in/hr0.0 mm/hr 2.11 in53.6 mm
09:55 PM 32.0°F0.0°C 26.6°F-3.0°C 87% 3.8 mph W6.1 kmh W 2.9 mph4.7 kmh 30.09 in1019.0 mb 0.00 in0.0 mm 0.00 in/hr0.0 mm/hr 2.11 in53.6 mm
10:00 PM 32.0°F0.0°C 26.6°F-3.0°C 87% 3.8 mph W6.1 kmh W 2.9 mph4.7 kmh 30.09 in1019.0 mb 0.00 in0.0 mm 0.00 in/hr0.0 mm/hr 2.11 in53.6 mm
10:05 PM 32.0°F0.0°C 26.6°F-3.0°C 87% 3.8 mph W6.1 kmh W 2.9 mph4.7 kmh 30.09 in1019.0 mb 0.00 in0.0 mm 0.00 in/hr0.0 mm/hr 2.11 in53.6 mm
10:10 PM 31.8°F-0.1°C 26.6°F-3.0°C 88% 3.8 mph W6.1 kmh W 2.9 mph4.7 kmh 30.06 in1017.9 mb 0.00 in0.0 mm 0.00 in/hr0.0 mm/hr 2.11 in53.6 mm
10:15 PM 31.8°F-0.1°C 26.6°F-3.0°C 88% 3.8 mph W6.1 kmh W 2.9 mph4.7 kmh 30.06 in1017.9 mb 0.00 in0.0 mm 0.00 in/hr0.0 mm/hr 2.11 in53.6 mm
10:20 PM 31.8°F-0.1°C 26.6°F-3.0°C 87% 3.8 mph W6.1 kmh W 2.9 mph4.7 kmh 30.06 in1017.9 mb 0.00 in0.0 mm 0.00 in/hr0.0 mm/hr 2.11 in53.6 mm
10:25 PM 31.6°F-0.2°C 26.6°F-3.0°C 87% 3.8 mph W6.1 kmh W 2.9 mph4.7 kmh 30.09 in1019.0 mb 0.00 in0.0 mm 0.00 in/hr0.0 mm/hr 2.11 in53.6 mm
10:30 PM 31.6°F-0.2°C 26.6°F-3.0°C 87% 3.8 mph W6.1 kmh W 2.9 mph4.7 kmh 30.09 in1019.0 mb 0.00 in0.0 mm 0.00 in/hr0.0 mm/hr 2.11 in53.6 mm
10:35 PM 31.5°F-0.3°C 26.6°F-3.0°C 87% 3.8 mph W6.1 kmh W 2.9 mph4.7 kmh 30.09 in1019.0 mb 0.00 in0.0 mm 0.00 in/hr0.0 mm/hr 2.11 in53.6 mm
10:40 PM 31.3°F-0.4°C 26.6°F-3.0°C 87% 3.8 mph W6.1 kmh W 2.9 mph4.7 kmh 30.06 in1017.9 mb 0.00 in0.0 mm 0.00 in/hr0.0 mm/hr 2.11 in53.6 mm
10:45 PM 31.3°F-0.4°C 26.6°F-3.0°C 87% 3.8 mph W6.1 kmh W 2.9 mph4.7 kmh 30.06 in1017.9 mb 0.00 in0.0 mm 0.00 in/hr0.0 mm/hr 2.11 in53.6 mm
10:50 PM 31.1°F-0.5°C 26.6°F-3.0°C 86% 3.8 mph W6.1 kmh W 2.9 mph4.7 kmh 30.06 in1017.9 mb 0.00 in0.0 mm 0.00 in/hr0.0 mm/hr 2.11 in53.6 mm
10:55 PM 30.9°F-0.6°C 26.6°F-3.0°C 86% 3.8 mph W6.1 kmh W 2.9 mph4.7 kmh 30.09 in1019.0 mb 0.00 in0.0 mm 0.00 in/hr0.0 mm/hr 2.11 in53.6 mm
11:00 PM 30.9°F-0.6°C 26.6°F-3.0°C 86% 3.8 mph W6.1 kmh W 2.9 mph4.7 kmh 30.09 in1019.0 mb 0.00 in0.0 mm 0.00 in/hr0.0 mm/hr 2.11 in53.6 mm
11:05 PM 30.7°F-0.7°C 26.6°F-3.0°C 86% 3.8 mph W6.1 kmh W 2.9 mph4.7 kmh 30.09 in1019.0 mb 0.00 in0.0 mm 0.00 in/hr0.0 mm/hr 2.11 in53.6 mm
11:10 PM 30.7°F-0.7°C 26.6°F-3.0°C 86% 3.8 mph W6.1 kmh W 2.9 mph4.7 kmh 30.09 in1019.0 mb 0.00 in0.0 mm 0.00 in/hr0.0 mm/hr 2.11 in53.6 mm
11:15 PM 30.6°F-0.8°C 24.8°F-4.0°C 86% 3.8 mph W6.1 kmh W 2.9 mph4.7 kmh 30.09 in1019.0 mb 0.00 in0.0 mm 0.00 in/hr0.0 mm/hr 2.11 in53.6 mm
11:20 PM 30.6°F-0.8°C 24.8°F-4.0°C 86% 3.8 mph W6.1 kmh W 2.9 mph4.7 kmh 30.09 in1019.0 mb 0.00 in0.0 mm 0.00 in/hr0.0 mm/hr 2.11 in53.6 mm
11:25 PM 30.4°F-0.9°C 24.8°F-4.0°C 86% 3.8 mph W6.1 kmh W 2.9 mph4.7 kmh 30.12 in1020.0 mb 0.00 in0.0 mm 0.00 in/hr0.0 mm/hr 2.11 in53.6 mm
11:30 PM 30.4°F-0.9°C 24.8°F-4.0°C 86% 3.8 mph W6.1 kmh W 2.9 mph4.7 kmh 30.12 in1020.0 mb 0.00 in0.0 mm 0.00 in/hr0.0 mm/hr 2.11 in53.6 mm
11:35 PM 30.4°F-0.9°C 24.8°F-4.0°C 86% 3.8 mph W6.1 kmh W 2.9 mph4.7 kmh 30.12 in1020.0 mb 0.00 in0.0 mm 0.00 in/hr0.0 mm/hr 2.11 in53.6 mm
11:40 PM 30.2°F-1.0°C 24.8°F-4.0°C 86% 3.8 mph W6.1 kmh W 2.9 mph4.7 kmh 30.12 in1020.0 mb 0.00 in0.0 mm 0.00 in/hr0.0 mm/hr 2.11 in53.6 mm
11:45 PM 30.2°F-1.0°C 24.8°F-4.0°C 85% 3.8 mph W6.1 kmh W 2.9 mph4.7 kmh 30.12 in1020.0 mb 0.00 in0.0 mm 0.00 in/hr0.0 mm/hr 2.11 in53.6 mm
11:50 PM 30.0°F-1.1°C 24.8°F-4.0°C 85% 3.8 mph W6.1 kmh W 2.9 mph4.7 kmh 30.12 in1020.0 mb 0.00 in0.0 mm 0.00 in/hr0.0 mm/hr 2.11 in53.6 mm
11:55 PM 30.0°F-1.1°C 24.8°F-4.0°C 85% 3.8 mph W6.1 kmh W 2.9 mph4.7 kmh 30.12 in1020.0 mb 0.00 in0.0 mm 0.00 in/hr0.0 mm/hr 2.11 in53.6 mm